Home > Products > Valid Products > TAF

000
FTUS43 KFSD 201300 AAB
TAFSUX
TAF AMD
KSUX 201342Z 2014/2112 15010KT P6SM SHRA SCT040 BKN090
     FM201800 16013G19KT P6SM SCT150
     FM210100 15010KT P6SM SCT150=



000
FTUS43 KFSD 201300 AAB
TAFSUX
TAF AMD
KSUX 201342Z 2014/2112 15010KT P6SM SHRA SCT040 BKN090
     FM201800 16013G19KT P6SM SCT150
     FM210100 15010KT P6SM SCT150=



000
FTUS43 KFSD 201100 AAA
TAFFSD
TAF AMD
KFSD 201149Z 2012/2112 13006KT P6SM BKN100
      TEMPO 2012/2013 -TSRA BKN080CB
     FM201600 14013G20KT P6SM BKN150
     FM210100 14010KT P6SM FEW040 BKN150
      TEMPO 2103/2107 3SM TSRA BKN040CB
     FM210900 18008KT P6SM SCT250=



000
FTUS43 KFSD 201100 AAA
TAFSUX
TAF AMD
KSUX 201149Z 2012/2112 13006KT P6SM -SHRA FEW040 BKN120
      TEMPO 2012/2014 -TSRA BKN080CB
     FM201800 16013G19KT P6SM SCT150
     FM210100 15010KT P6SM SCT150=



000
FTUS43 KFSD 201100 RRA
TAFHON
TAF
KHON 201142Z 2012/2112 14008KT P6SM SCT250
     FM201500 14013G20KT P6SM BKN150
     FM202300 14010KT P6SM SCT040 BKN120
      TEMPO 2100/2104 5SM TSRA BKN040CB
     FM210900 20006KT 3SM BR FEW010=



000
FTUS43 KFSD 201100 RRA
TAFSUX
TAF
KSUX 201142Z 2012/2112 13006KT P6SM -SHRA FEW040 BKN120
     FM201800 16013G19KT P6SM SCT150
     FM210100 15010KT P6SM SCT150=



000
FTUS43 KFSD 201100 RRA
TAFFSD
TAF
KFSD 201142Z 2012/2112 13006KT P6SM BKN100
     FM201600 14013G20KT P6SM BKN150
     FM210100 14010KT P6SM FEW040 BKN150
      TEMPO 2103/2107 3SM TSRA BKN040CB
     FM210900 18008KT P6SM SCT250=



000
FTUS43 KFSD 201100 RRA
TAFSUX
TAF
KSUX 201142Z 2012/2112 13006KT P6SM -SHRA FEW040 BKN120
     FM201800 16013G19KT P6SM SCT150
     FM210100 15010KT P6SM SCT150=



000
FTUS43 KFSD 200800 AAA
TAFSUX
TAF AMD
KSUX 200812Z 2008/2106 13004KT P6SM OVC100
      TEMPO 2008/2012 3SM -TSRA BKN060CB
     FM201500 15013G18KT P6SM SCT080 BKN150
     FM210100 16010KT P6SM SCT060 OVC080=



000
FTUS43 KFSD 200500
TAFSUX
TAF
KSUX 200538Z 2006/2106 11005KT P6SM SCT200
     FM200800 12010KT P6SM BKN070 OVC110
      TEMPO 2009/2012 -TSRA BKN060CB
     FM201500 15013G18KT P6SM SCT080 BKN150
     FM210100 16010KT P6SM SCT060 OVC080=



000
FTUS43 KFSD 200500
TAFHON
TAF
KHON 200538Z 2006/2106 14006KT P6SM SCT250
     FM200900 13007KT P6SM SCT100
     FM201600 14014G19KT P6SM BKN090
     FM202300 15011KT P6SM SCT040 OVC080
      TEMPO 2101/2104 6SM TSRA BKN040CB=



000
FTUS43 KFSD 200500
TAFFSD
TAF
KFSD 200538Z 2006/2106 VRB03KT P6SM SCT250
     FM201100 11009KT P6SM BKN060 OVC100
     FM201600 12013G18KT P6SM SCT070 BKN150
     FM210100 15011KT P6SM SCT040 OVC080
      TEMPO 2103/2106 6SM TSRA BKN040CB=



000
FTUS43 KFSD 192300
TAFHON
TAF
KHON 192337Z 2000/2024 VRB04KT P6SM SCT250
     FM200200 14006KT P6SM SKC
     FM200900 11007KT P6SM SCT120
     FM201600 14014G19KT P6SM BKN090=



000
FTUS43 KFSD 192300
TAFSUX
TAF
KSUX 192337Z 2000/2024 VRB05KT P6SM FEW140
     FM200300 12005KT P6SM SCT140 SCT200
     FM200800 12010KT P6SM BKN050
      TEMPO 2009/2013 SHRA
     FM201500 15013G18KT P6SM SCT080 BKN150=



000
FTUS43 KFSD 192300
TAFFSD
TAF
KFSD 192337Z 2000/2024 VRB03KT P6SM SKC
     FM200900 10006KT P6SM SCT120
     FM201200 10009KT P6SM BKN060
     FM201600 12013G18KT P6SM SCT070 BKN150=



000
FTUS43 KFSD 192300
TAFSUX
TAF
KSUX 192337Z 2000/2024 VRB05KT P6SM FEW140
     FM200300 12005KT P6SM SCT140 SCT200
     FM200800 12010KT P6SM BKN050
      TEMPO 2009/2013 SHRA
     FM201500 15013G18KT P6SM SCT080 BKN150=



000
FTUS43 KFSD 191700
TAFSUX
TAF
KSUX 191720Z 1918/2018 VRB05KT P6SM FEW140
     FM200300 12005KT P6SM SCT140 SCT200
     FM200800 12010KT P6SM BKN050
      TEMPO 2009/2013 SHRA
     FM201300 15013KT P6SM SCT080 BKN150=



000
FTUS43 KFSD 191700
TAFSUX
TAF
KSUX 191720Z 1918/2018 VRB05KT P6SM FEW140
     FM200300 12005KT P6SM SCT140 SCT200
     FM200800 12010KT P6SM BKN050
      TEMPO 2009/2013 SHRA
     FM201300 15013KT P6SM SCT080 BKN150=



000
FTUS43 KFSD 191700
TAFFSD
TAF
KFSD 191720Z 1918/2018 28007KT P6SM FEW050
     FM200000 VRB03KT P6SM SKC
     FM200900 10006KT P6SM SCT120
     FM201200 10009KT P6SM BKN060
      TEMPO 2012/2016 SHRA
     FM201600 12014KT P6SM SCT070 BKN150=



000
FTUS43 KFSD 191700
TAFHON
TAF
KHON 191720Z 1918/2018 30006KT P6SM SKC
     FM192100 VRB04KT P6SM SKC
     FM200200 14006KT P6SM SKC
     FM200900 11007KT P6SM SCT120
     FM201400 14013KT P6SM BKN090=



000
FTUS43 KFSD 191100
TAFFSD
TAF
KFSD 191125Z 1912/2012 30004KT P6SM SKC
     FM191500 31007KT P6SM FEW050
     FM200000 VRB04KT P6SM SKC=



000
FTUS43 KFSD 191100
TAFSUX
TAF
KSUX 191125Z 1912/2012 29004KT P6SM SKC
     FM191500 31007KT P6SM FEW050
     FM200000 VRB04KT P6SM SKC=



000
FTUS43 KFSD 191100
TAFHON
TAF
KHON 191125Z 1912/2012 29005KT P6SM SKC
     FM191800 VRB04KT P6SM FEW060
     FM200200 15006KT P6SM SCT200=



000
FTUS43 KFSD 190600 RRA
TAFFSD
TAF
KFSD 190612Z 1906/2006 30004KT P6SM SKC
     FM191500 31007KT P6SM FEW050
     FM200000 VRB04KT P6SM SKC=



000
FTUS43 KFSD 190600 RRA
TAFSUX
TAF
KSUX 190612Z 1906/2006 29004KT P6SM SKC
     FM191500 31007KT P6SM FEW050
     FM200000 VRB04KT P6SM SKC=



000
FTUS43 KFSD 190600 RRA
TAFSUX
TAF
KSUX 190612Z 1906/2006 29004KT P6SM SKC
     FM191500 31007KT P6SM FEW050
     FM200000 VRB04KT P6SM SKC=



000
FTUS43 KFSD 190600 RRA
TAFHON
TAF
KHON 190612Z 1906/2006 29005KT P6SM SKC
     FM191800 VRB04KT P6SM FEW060
     FM200200 15006KT P6SM SCT200=



000
FTUS43 KFSD 182300
TAFFSD
TAF
KFSD 182320Z 1900/1924 28007KT P6SM SCT060
     FM190300 30004KT P6SM SKC
     FM191500 31007KT P6SM FEW050=



000
FTUS43 KFSD 182300
TAFHON
TAF
KHON 182320Z 1900/1924 30014G21KT P6SM SCT050
     FM190100 29005KT P6SM SCT050=



000
FTUS43 KFSD 182300
TAFSUX
TAF
KSUX 182320Z 1900/1924 24007KT P6SM SCT035
     FM190200 31004KT P6SM FEW060=



000
FTUS43 KFSD 182300
TAFSUX
TAF
KSUX 182320Z 1900/1924 24007KT P6SM SCT035
     FM190200 31004KT P6SM FEW060=



000
FTUS43 KFSD 181700
TAFSUX
TAF
KSUX 181720Z 1818/1918 27007KT P6SM SCT035
     FM190200 31004KT P6SM FEW060=



000
FTUS43 KFSD 181700
TAFHON
TAF
KHON 181720Z 1818/1918 29009KT P6SM SCT100
     FM181900 30014G21KT P6SM SCT050
     FM190100 29005KT P6SM SCT050=



000
FTUS43 KFSD 181700
TAFFSD
TAF
KFSD 181720Z 1818/1918 27009KT P6SM SKC
     FM182100 28012G19KT P6SM FEW060
     FM190000 30007KT P6SM SCT060
     FM190300 30004KT P6SM SKC
     FM191500 31007KT P6SM SKC=



000
FTUS43 KFSD 181700
TAFSUX
TAF
KSUX 181720Z 1818/1918 27007KT P6SM SCT035
     FM190200 31004KT P6SM FEW060=



000
FTUS43 KFSD 181100
TAFSUX
TAF
KSUX 181120Z 1812/1912 19009KT P6SM SCT080
     FM181800 23012G18KT P6SM SCT030
     FM182300 27010KT P6SM SCT035=



000
FTUS43 KFSD 181100
TAFFSD
TAF
KFSD 181120Z 1812/1912 16004KT 4SM BR SKC
     FM181300 20008KT P6SM SCT030
     FM182200 25012G19KT P6SM BKN050
     FM190100 30007KT P6SM SCT100=



000
FTUS43 KFSD 181100
TAFSUX
TAF
KSUX 181120Z 1812/1912 19009KT P6SM SCT080
     FM181800 23012G18KT P6SM SCT030
     FM182300 27010KT P6SM SCT035=



000
FTUS43 KFSD 181100
TAFHON
TAF
KHON 181120Z 1812/1912 VRB04KT P6SM SCT120
     FM181500 27009KT P6SM SCT050
     FM181900 29014G21KT P6SM SCT050
     FM190000 29007KT P6SM SCT100=



000
FTUS43 KFSD 180500 RRA
TAFFSD
TAF
KFSD 180545Z 1806/1906 VRB04KT P6SM BKN100
     FM181100 16004KT 4SM BR SKC
     FM181300 20008KT P6SM SCT025
     FM190100 30007KT P6SM SCT100=



000
FTUS43 KFSD 180500 RRA
TAFSUX
TAF
KSUX 180545Z 1806/1906 17005KT P6SM SCT035 SCT100
     FM181200 19009KT P6SM SCT080
     FM182300 27010KT P6SM SCT035=



000
FTUS43 KFSD 180500 RRA
TAFSUX
TAF
KSUX 180545Z 1806/1906 17005KT P6SM SCT035 SCT100
     FM181200 19009KT P6SM SCT080
     FM182300 27010KT P6SM SCT035=



000
FTUS43 KFSD 180500 RRA
TAFHON
TAF
KHON 180545Z 1806/1906 VRB04KT P6SM SCT120
     FM181500 27009KT P6SM SCT050
     FM181900 29012G18KT P6SM SCT050
     FM190000 29007KT P6SM SCT100=



000
FTUS43 KFSD 172300
TAFHON
TAF
KHON 172331Z 1800/1824 VRB04KT P6SM SCT025 SCT120
     FM180400 27006KT 6SM -TSRA BKN050CB
     FM180600 27005KT P6SM SCT050
     FM181500 28009KT P6SM SCT050
     FM181900 30012G18KT P6SM SCT050=



000
FTUS43 KFSD 172300
TAFSUX
TAF
KSUX 172331Z 1800/1824 21005KT P6SM SCT015 SCT035
     FM180200 17005KT P6SM SCT035 SCT100
     FM181200 31009KT P6SM SCT080=



000
FTUS43 KFSD 172300
TAFSUX
TAF
KSUX 172331Z 1800/1824 21005KT P6SM SCT015 SCT035
     FM180200 17005KT P6SM SCT035 SCT100
     FM181200 31009KT P6SM SCT080=



000
FTUS43 KFSD 172300
TAFFSD
TAF
KFSD 172331Z 1800/1824 VRB04KT P6SM BKN100
     FM180900 20004KT P6SM -TSRA BKN060CB
     FM181100 29008KT P6SM SCT060=



000
FTUS43 KFSD 172100 AAB
TAFHON
TAF AMD
KHON 172116Z 1721/1818 VRB04KT P6SM SCT025 SCT120
     FM180400 27006KT 6SM -TSRA BKN050CB
     FM180600 27005KT P6SM SCT100
     FM181500 28009KT P6SM SCT050=



000
FTUS43 KFSD 171900 AAA
TAFHON
TAF AMD
KHON 171956Z 1720/1818 VRB04KT P6SM SCT025 SCT120
      TEMPO 1720/1722 -TSRA BKN025CB
     FM180400 27006KT 6SM -TSRA BKN050CB
     FM180600 27005KT P6SM SCT100
     FM181500 28009KT P6SM SCT050=



000
FTUS43 KFSD 171700
TAFSUX
TAF
KSUX 171720Z 1718/1818 21005KT P6SM SCT015 SCT035
     FM180200 17005KT P6SM SCT035 SCT100
     FM181000 17005KT 6SM -TSRA BKN060CB
     FM181200 23006KT P6SM SCT080=



000
FTUS43 KFSD 171700
TAFFSD
TAF
KFSD 171720Z 1718/1818 24005KT P6SM BKN020
     FM172000 22005KT P6SM SCT025
     FM180100 19004KT P6SM BKN100
     FM180900 20004KT 6SM -TSRA BKN060CB
     FM181200 24006KT P6SM SCT060=



000
FTUS43 KFSD 171700
TAFSUX
TAF
KSUX 171720Z 1718/1818 21005KT P6SM SCT015 SCT035
     FM180200 17005KT P6SM SCT035 SCT100
     FM181000 17005KT 6SM -TSRA BKN060CB
     FM181200 23006KT P6SM SCT080=



000
FTUS43 KFSD 171700
TAFHON
TAF
KHON 171720Z 1718/1818 VRB04KT P6SM BKN015
     FM171900 VRB04KT P6SM SCT015 SCT120
     FM180400 27006KT 6SM -TSRA BKN050CB
     FM180600 27005KT P6SM SCT100
     FM181500 28009KT P6SM SCT050=



000
FTUS43 KFSD 171400 AAA
TAFSUX
TAF AMD
KSUX 171448Z 1715/1812 21005KT P6SM SCT040
     FM180700 18005KT P6SM BKN080=



000
FTUS43 KFSD 171400 AAA
TAFSUX
TAF AMD
KSUX 171448Z 1715/1812 21005KT P6SM SCT040
     FM180700 18005KT P6SM BKN080=



    US Dept of Commerce
    National Oceanic and Atmospheric Administration
    National Weather Service
    1325 East West Highway
    Silver Spring, MD 20910
    Page Author: NWS Internet Services Team
Disclaimer
Information Quality
Credits
Glossary
Privacy Policy
Freedom of Information Act (FOIA)
About Us
Career Opportunities